Terminal Aerodrome Forecast
Issued by NWS North Platte, NE

Home | Current Version | Previous Version | Graphics & Text | Print | Product List | Glossary On
Versions: 1 2 3 4 5 6 7 8 9 10 11 12 13 14 15 16 17 18 19 20 21 22 23 24 25 26 27 28
000
FTUS43 KLBF 231534 AAA
TAFVTN
TAF AMD
KVTN 231534Z 2316/2412 35009KT 4SM -RA BR OVC004
     FM231900 01008KT 5SM -SHRA OVC007
     FM240000 35009KT 5SM -SHRA OVC007=

USA.gov is the U.S. government's official web portal to all federal, state and local government web resources and services.